createdAt,value
2022-07-27T00:01:56.467Z,0.88
2022-07-27T00:04:23.375Z,1.15
2022-07-27T00:06:50.445Z,1.10
2022-07-27T00:09:21.726Z,1.50
2022-07-27T00:11:48.367Z,1.27
2022-07-27T00:14:15.281Z,1.10
2022-07-27T00:16:42.238Z,1.23
2022-07-27T00:19:09.528Z,1.45
2022-07-27T00:21:38.690Z,1.38
2022-07-27T00:24:13.182Z,1.27
2022-07-27T00:26:39.776Z,1.20
2022-07-27T00:29:06.792Z,1.10
2022-07-27T00:31:33.583Z,1.40
2022-07-27T00:34:00.265Z,0.93
2022-07-27T00:36:27.038Z,1.30
2022-07-27T00:38:53.846Z,1.38
2022-07-27T00:41:20.625Z,1.50
2022-07-27T00:44:06.791Z,1.42
2022-07-27T00:46:33.793Z,1.58
2022-07-27T00:49:00.697Z,1.20
2022-07-27T00:51:27.652Z,1.58
2022-07-27T00:53:55.854Z,1.38
2022-07-27T00:56:23.005Z,1.95
2022-07-27T00:58:52.751Z,1.42
2022-07-27T01:01:20.169Z,1.63
2022-07-27T01:03:47.886Z,1.30
2022-07-27T01:06:15.747Z,1.90
2022-07-27T01:08:43.069Z,1.50
2022-07-27T01:11:10.900Z,1.60
2022-07-27T01:13:38.099Z,1.80
2022-07-27T01:16:08.075Z,1.83
2022-07-27T01:18:39.831Z,2.08
2022-07-27T01:21:09.224Z,2.20
2022-07-27T01:23:35.964Z,2.05
2022-07-27T01:26:04.049Z,2.15
2022-07-27T01:28:30.730Z,2.22
2022-07-27T01:30:57.533Z,2.03
2022-07-27T01:33:26.069Z,1.90
2022-07-27T01:35:54.978Z,1.58
2022-07-27T01:38:22.137Z,1.50
2022-07-27T01:40:51.655Z,1.73
2022-07-27T01:43:18.558Z,1.55
2022-07-27T01:45:45.832Z,1.90
2022-07-27T01:48:12.466Z,1.52
2022-07-27T01:50:39.857Z,1.60
2022-07-27T01:53:09.602Z,1.30
2022-07-27T01:55:39.133Z,1.60
2022-07-27T01:58:07.358Z,1.40
2022-07-27T02:00:35.078Z,1.60
2022-07-27T02:03:02.665Z,1.70
2022-07-27T02:05:29.537Z,1.73
2022-07-27T02:07:56.404Z,1.63
2022-07-27T02:10:23.940Z,1.88
2022-07-27T02:12:53.928Z,1.17
2022-07-27T02:15:22.586Z,1.40
2022-07-27T02:17:52.171Z,1.48
2022-07-27T02:20:20.936Z,1.83
2022-07-27T02:22:47.714Z,1.98
2022-07-27T02:25:16.649Z,1.20
2022-07-27T02:27:44.037Z,1.83
2022-07-27T02:30:12.835Z,1.75
2022-07-27T02:32:40.825Z,1.77
2022-07-27T02:35:18.800Z,1.73
2022-07-27T02:37:47.121Z,1.50
2022-07-27T02:40:15.637Z,1.73
2022-07-27T02:42:42.370Z,1.90
2022-07-27T02:45:09.901Z,1.73
2022-07-27T02:47:36.636Z,2.20
2022-07-27T02:50:03.518Z,2.13
2022-07-27T02:52:30.232Z,1.55
2022-07-27T02:54:56.884Z,1.52
2022-07-27T02:57:23.531Z,1.67
2022-07-27T02:59:50.197Z,1.52
2022-07-27T03:02:16.988Z,1.48
2022-07-27T03:04:59.954Z,1.90
2022-07-27T03:07:26.766Z,1.63
2022-07-27T03:09:53.868Z,1.50
2022-07-27T03:12:20.619Z,1.70
2022-07-27T03:14:47.362Z,1.83
2022-07-27T03:17:14.086Z,1.30
2022-07-27T03:19:40.751Z,1.85
2022-07-27T03:22:07.431Z,1.65
2022-07-27T03:24:34.071Z,1.83
2022-07-27T03:27:00.740Z,1.60
2022-07-27T03:29:29.387Z,1.95
2022-07-27T03:31:56.224Z,1.83
2022-07-27T03:34:22.949Z,1.80
2022-07-27T03:36:49.820Z,1.90
2022-07-27T03:39:16.941Z,1.98
2022-07-27T03:41:43.666Z,1.80
2022-07-27T03:44:10.359Z,1.90
2022-07-27T03:46:37.759Z,2.08
2022-07-27T03:49:14.177Z,2.13
2022-07-27T03:51:42.092Z,1.50
2022-07-27T03:54:08.861Z,1.48
2022-07-27T03:56:35.674Z,2.22
2022-07-27T03:59:02.454Z,2.45
2022-07-27T04:01:29.211Z,2.25
2022-07-27T04:03:55.980Z,2.03
2022-07-27T04:06:22.696Z,2.00
2022-07-27T04:08:49.299Z,2.25
2022-07-27T04:11:18.222Z,2.05
2022-07-27T04:13:48.476Z,1.73
2022-07-27T04:16:15.348Z,2.28
2022-07-27T04:18:42.217Z,1.90
2022-07-27T04:21:09.000Z,1.83
2022-07-27T04:23:38.349Z,1.90
2022-07-27T04:26:05.380Z,2.10
2022-07-27T04:28:32.638Z,2.03
2022-07-27T04:30:59.703Z,2.10
2022-07-27T04:33:26.386Z,2.47
2022-07-27T04:35:53.025Z,1.83
2022-07-27T04:38:19.734Z,2.38
2022-07-27T04:40:46.437Z,2.40
2022-07-27T04:43:16.497Z,1.90
2022-07-27T04:45:44.660Z,1.90
2022-07-27T04:48:11.787Z,1.40
2022-07-27T04:50:43.885Z,1.60
2022-07-27T04:53:14.783Z,1.73
2022-07-27T04:55:45.025Z,2.13
2022-07-27T05:00:55.575Z,1.60
2022-07-27T05:03:22.366Z,1.67
2022-07-27T05:05:49.927Z,1.45
2022-07-27T05:08:17.750Z,1.70
2022-07-27T05:10:44.418Z,1.75
2022-07-27T05:13:11.157Z,1.52
2022-07-27T05:15:55.103Z,1.50
2022-07-27T05:18:22.725Z,1.40
2022-07-27T05:20:49.966Z,1.73
2022-07-27T05:23:17.533Z,1.63
2022-07-27T05:25:44.330Z,1.52
2022-07-27T05:28:12.833Z,1.30
2022-07-27T05:30:39.517Z,1.60
2022-07-27T05:33:06.247Z,1.42
2022-07-27T05:35:32.936Z,1.33
2022-07-27T05:37:59.745Z,2.25
2022-07-27T05:40:27.216Z,1.30
2022-07-27T05:42:54.214Z,1.75
2022-07-27T05:45:20.835Z,2.05
2022-07-27T05:47:47.613Z,1.58
2022-07-27T05:50:15.848Z,1.70
2022-07-27T05:52:43.498Z,2.00
2022-07-27T05:55:10.768Z,1.75
2022-07-27T05:57:38.011Z,2.35
2022-07-27T06:00:06.521Z,1.58
2022-07-27T06:02:33.254Z,1.40
2022-07-27T06:05:00.194Z,1.38
2022-07-27T06:07:45.288Z,1.25
2022-07-27T06:10:16.897Z,1.40
2022-07-27T06:12:44.854Z,1.50
2022-07-27T06:15:13.369Z,1.85
2022-07-27T06:17:41.292Z,1.20
2022-07-27T06:20:09.186Z,1.25
2022-07-27T06:22:45.605Z,1.20
2022-07-27T06:25:13.265Z,0.90
2022-07-27T06:27:40.019Z,1.08
2022-07-27T06:30:07.362Z,0.70
2022-07-27T06:32:34.220Z,1.02
2022-07-27T06:35:02.266Z,1.13
2022-07-27T06:37:31.150Z,1.10
2022-07-27T06:39:59.178Z,0.90
2022-07-27T06:42:25.877Z,1.10
2022-07-27T06:44:52.804Z,0.80
2022-07-27T06:47:19.751Z,0.90
2022-07-27T06:49:46.387Z,0.93
2022-07-27T06:52:13.068Z,0.73
2022-07-27T06:54:39.876Z,0.88
2022-07-27T06:57:06.762Z,0.90
2022-07-27T06:59:43.533Z,1.25
2022-07-27T07:02:10.752Z,0.95
2022-07-27T07:04:37.808Z,1.10
2022-07-27T07:07:07.247Z,0.95
2022-07-27T07:09:34.555Z,1.10
2022-07-27T07:12:02.435Z,1.00
2022-07-27T07:14:29.393Z,0.70
2022-07-27T07:16:56.122Z,0.90
2022-07-27T07:19:22.858Z,0.82
2022-07-27T07:21:49.628Z,0.95
2022-07-27T07:24:16.464Z,0.80
2022-07-27T07:26:43.213Z,1.02
2022-07-27T07:29:10.442Z,1.05
2022-07-27T07:31:38.022Z,0.77
2022-07-27T07:34:05.281Z,0.90
2022-07-27T07:36:31.892Z,0.82
2022-07-27T07:38:59.909Z,0.77
2022-07-27T07:41:26.758Z,0.93
2022-07-27T07:43:53.374Z,0.80
2022-07-27T07:46:20.126Z,1.25
2022-07-27T07:48:46.859Z,0.77
2022-07-27T07:51:13.807Z,0.95
2022-07-27T07:53:41.615Z,0.93
2022-07-27T07:56:08.720Z,1.10
2022-07-27T07:58:35.381Z,1.02
2022-07-27T08:01:02.048Z,1.10
2022-07-27T08:03:28.793Z,1.33
2022-07-27T08:05:55.578Z,1.10
2022-07-27T08:08:24.848Z,1.15
2022-07-27T08:10:51.750Z,0.93
2022-07-27T08:13:22.144Z,0.70
2022-07-27T08:15:49.635Z,0.90
2022-07-27T08:18:16.310Z,1.00
2022-07-27T08:20:43.132Z,0.90
2022-07-27T08:23:09.879Z,1.30
2022-07-27T08:25:39.259Z,1.10
2022-07-27T08:28:06.255Z,1.50
2022-07-27T08:30:34.325Z,1.10
2022-07-27T08:33:03.648Z,0.77
2022-07-27T08:35:32.144Z,1.15
2022-07-27T08:37:59.628Z,1.08
2022-07-27T08:40:44.842Z,1.20
2022-07-27T08:43:18.903Z,1.33
2022-07-27T08:45:59.074Z,1.00
2022-07-27T08:48:27.538Z,1.40
2022-07-27T08:50:55.200Z,1.20
2022-07-27T08:53:22.584Z,0.90
2022-07-27T08:55:50.061Z,1.33
2022-07-27T08:58:17.124Z,1.00
2022-07-27T09:00:46.571Z,1.00
2022-07-27T09:03:18.925Z,1.08
2022-07-27T09:05:49.595Z,1.00
2022-07-27T09:08:26.647Z,0.90
2022-07-27T09:10:55.295Z,1.02
2022-07-27T09:13:30.593Z,1.00
2022-07-27T09:18:47.469Z,1.00
2022-07-27T09:21:17.242Z,0.88
2022-07-27T09:23:48.954Z,1.15
2022-07-27T09:26:32.614Z,0.93
2022-07-27T09:29:14.935Z,0.93
2022-07-27T09:31:47.534Z,1.10
2022-07-27T09:34:31.112Z,0.77
2022-07-27T09:36:58.778Z,0.90
2022-07-27T09:39:27.855Z,0.80
2022-07-27T09:42:02.096Z,0.93
2022-07-27T09:44:43.517Z,0.77
2022-07-27T09:47:28.131Z,0.52
2022-07-27T09:50:19.924Z,0.50
2022-07-27T09:52:52.409Z,0.90
2022-07-27T09:55:22.316Z,0.77
2022-07-27T09:57:58.132Z,0.93
2022-07-27T10:00:27.583Z,1.17
2022-07-27T10:02:56.953Z,0.90
2022-07-27T10:05:24.592Z,0.75
2022-07-27T10:07:54.473Z,0.90
2022-07-27T10:10:22.952Z,0.65
2022-07-27T10:12:54.718Z,0.80
2022-07-27T10:15:26.407Z,0.90
2022-07-27T10:18:01.943Z,0.63
2022-07-27T10:20:32.200Z,1.08
2022-07-27T10:22:59.976Z,1.00
2022-07-27T10:25:34.290Z,1.00
2022-07-27T10:28:16.469Z,1.40
2022-07-27T10:30:44.551Z,1.05
2022-07-27T10:33:41.963Z,0.80
2022-07-27T10:36:19.997Z,0.85
2022-07-27T10:39:04.521Z,1.13
2022-07-27T10:41:40.223Z,0.90
2022-07-27T10:44:24.173Z,0.80
2022-07-27T10:47:03.224Z,0.80
2022-07-27T10:49:33.036Z,0.70
2022-07-27T10:52:07.752Z,1.15
2022-07-27T10:54:38.783Z,1.27
2022-07-27T10:57:11.268Z,1.13
2022-07-27T11:00:07.500Z,1.02
2022-07-27T11:02:42.385Z,0.90
2022-07-27T11:05:42.577Z,0.80
2022-07-27T11:10:54.799Z,0.75
2022-07-27T11:13:24.094Z,1.17
2022-07-27T11:19:04.271Z,0.82
2022-07-27T11:21:36.564Z,0.98
2022-07-27T11:24:19.795Z,1.00
2022-07-27T11:26:54.933Z,0.90
2022-07-27T11:29:24.073Z,1.00
2022-07-27T11:31:57.230Z,0.80
2022-07-27T11:34:33.630Z,1.10
2022-07-27T11:37:05.608Z,0.95
2022-07-27T11:39:59.754Z,1.13
2022-07-27T11:42:23.284Z,0.75
2022-07-27T11:44:55.569Z,0.95
2022-07-27T11:47:24.123Z,0.90
2022-07-27T11:49:51.158Z,1.05
2022-07-27T11:52:18.589Z,0.88
2022-07-27T11:54:51.443Z,0.80
2022-07-27T11:57:19.023Z,0.82
2022-07-27T11:59:46.447Z,0.70
2022-07-27T12:02:20.748Z,0.80
2022-07-27T12:04:51.158Z,0.73
2022-07-27T12:07:28.175Z,0.80
2022-07-27T12:09:56.931Z,0.68
2022-07-27T12:12:25.938Z,0.73
2022-07-27T12:14:57.329Z,0.50
2022-07-27T12:17:38.427Z,0.60
2022-07-27T12:20:27.060Z,0.60
2022-07-27T12:23:03.416Z,0.70
2022-07-27T12:25:34.387Z,0.70
2022-07-27T12:28:10.284Z,0.60
2022-07-27T12:30:40.220Z,0.70
2022-07-27T12:33:24.927Z,0.43
2022-07-27T12:35:51.889Z,0.73
2022-07-27T12:38:30.713Z,0.52
2022-07-27T12:41:01.133Z,0.77
2022-07-27T12:43:29.738Z,0.70
2022-07-27T12:45:59.000Z,0.60
2022-07-27T12:48:38.070Z,0.60
2022-07-27T12:51:10.179Z,0.63
2022-07-27T12:53:45.180Z,0.75
2022-07-27T12:56:14.618Z,0.98
2022-07-27T12:59:01.005Z,0.75
2022-07-27T13:01:28.382Z,0.55
2022-07-27T13:03:55.760Z,0.90
2022-07-27T13:06:36.614Z,0.50
2022-07-27T13:09:06.961Z,0.70
2022-07-27T13:12:10.424Z,0.50
2022-07-27T13:15:02.479Z,0.60
2022-07-27T13:21:24.716Z,0.70
2022-07-27T13:24:29.992Z,0.77
2022-07-27T13:27:26.693Z,0.60
2022-07-27T13:30:18.502Z,0.85
2022-07-27T13:33:34.706Z,0.70
2022-07-27T13:36:32.236Z,0.77
2022-07-27T13:39:34.477Z,0.52
2022-07-27T13:45:28.949Z,0.73
2022-07-27T13:55:29.207Z,0.82
2022-07-27T13:58:11.182Z,0.90
2022-07-27T14:04:01.634Z,0.85
2022-07-27T14:06:30.193Z,0.82
2022-07-27T14:08:59.372Z,0.63
2022-07-27T14:11:26.093Z,0.70
2022-07-27T14:13:53.336Z,0.80
2022-07-27T14:16:20.304Z,0.73
2022-07-27T14:18:47.002Z,0.93
2022-07-27T14:21:14.184Z,0.90
2022-07-27T14:23:42.084Z,0.75
2022-07-27T14:26:09.550Z,0.80
2022-07-27T14:28:38.252Z,0.60
2022-07-27T14:31:08.019Z,0.70
2022-07-27T14:33:37.049Z,0.80
2022-07-27T14:36:05.477Z,1.00
2022-07-27T14:38:32.141Z,1.10
2022-07-27T14:41:00.821Z,0.70
2022-07-27T14:43:28.374Z,0.60
2022-07-27T14:45:55.000Z,0.70
2022-07-27T14:48:32.449Z,0.77
2022-07-27T14:51:08.413Z,0.90
2022-07-27T14:53:35.089Z,0.98
2022-07-27T14:56:01.731Z,0.70
2022-07-27T14:58:28.347Z,0.80
2022-07-27T15:00:55.010Z,1.10
2022-07-27T15:03:22.619Z,0.95
2022-07-27T15:05:50.924Z,1.10
2022-07-27T15:08:19.872Z,0.80
2022-07-27T15:10:47.121Z,0.85
2022-07-27T15:13:14.780Z,0.90
2022-07-27T15:15:41.511Z,1.08
2022-07-27T15:18:08.890Z,1.10
2022-07-27T15:20:35.818Z,0.90
2022-07-27T15:23:06.587Z,0.80
2022-07-27T15:25:33.802Z,0.75
2022-07-27T15:28:03.862Z,0.60
2022-07-27T15:30:33.772Z,0.70
2022-07-27T15:33:02.989Z,0.70
2022-07-27T15:35:29.588Z,0.70
2022-07-27T15:37:58.382Z,0.77
2022-07-27T15:40:38.307Z,0.70
2022-07-27T15:43:07.236Z,0.60
2022-07-27T15:45:38.503Z,0.90
2022-07-27T15:48:07.116Z,0.82
2022-07-27T15:50:34.173Z,0.73
2022-07-27T15:53:01.511Z,0.75
2022-07-27T15:55:28.201Z,0.63
2022-07-27T15:57:55.024Z,0.80
2022-07-27T16:00:21.821Z,0.60
2022-07-27T16:02:48.565Z,0.60
2022-07-27T16:05:15.247Z,0.80
2022-07-27T16:07:42.095Z,0.70
2022-07-27T16:10:09.644Z,0.70
2022-07-27T16:12:38.473Z,0.68
2022-07-27T16:15:05.931Z,0.63
2022-07-27T16:17:32.665Z,0.70
2022-07-27T16:19:59.671Z,0.90
2022-07-27T16:22:26.885Z,0.60
2022-07-27T16:24:54.154Z,0.70
2022-07-27T16:27:20.838Z,0.77
2022-07-27T16:29:47.967Z,0.70
2022-07-27T16:32:14.776Z,0.82
2022-07-27T16:34:41.546Z,0.77
2022-07-27T16:37:08.299Z,0.85
2022-07-27T16:39:36.331Z,0.80
2022-07-27T16:42:03.185Z,0.85
2022-07-27T16:47:10.649Z,0.82
2022-07-27T16:49:37.335Z,0.90
2022-07-27T16:52:05.721Z,0.80
2022-07-27T16:54:38.637Z,0.93
2022-07-27T16:57:07.302Z,0.40
2022-07-27T16:59:34.016Z,0.60
2022-07-27T17:02:02.979Z,0.50
2022-07-27T17:04:29.727Z,0.80
2022-07-27T17:06:56.728Z,0.60
2022-07-27T17:09:23.483Z,0.47
2022-07-27T17:11:50.501Z,0.82
2022-07-27T17:14:17.563Z,0.50
2022-07-27T17:16:51.841Z,0.45
2022-07-27T17:19:19.293Z,0.60
2022-07-27T17:21:46.294Z,0.63
2022-07-27T17:24:12.902Z,0.60
2022-07-27T17:26:39.708Z,0.60
2022-07-27T17:29:06.377Z,0.70
2022-07-27T17:31:33.216Z,0.80
2022-07-27T17:33:59.931Z,0.50
2022-07-27T17:36:28.625Z,0.55
2022-07-27T17:38:56.887Z,0.60
2022-07-27T17:41:25.369Z,0.77
2022-07-27T17:43:54.574Z,0.60
2022-07-27T17:46:22.930Z,0.60
2022-07-27T17:48:50.093Z,0.77
2022-07-27T17:51:17.544Z,0.70
2022-07-27T17:53:53.357Z,0.50
2022-07-27T17:56:20.404Z,0.80
2022-07-27T17:58:51.742Z,0.85
2022-07-27T18:01:46.338Z,0.68
2022-07-27T18:04:08.067Z,0.80
2022-07-27T18:06:38.916Z,0.82
2022-07-27T18:09:30.224Z,0.65
2022-07-27T18:11:57.848Z,1.10
2022-07-27T18:14:32.304Z,1.00
2022-07-27T18:17:20.729Z,1.00
2022-07-27T18:19:48.651Z,1.27
2022-07-27T18:22:17.426Z,0.70
2022-07-27T18:24:49.733Z,0.88
2022-07-27T18:27:33.119Z,1.02
2022-07-27T18:30:05.869Z,0.80
2022-07-27T18:32:38.027Z,1.20
2022-07-27T18:35:06.350Z,0.77
2022-07-27T18:37:33.788Z,0.65
2022-07-27T18:40:00.875Z,1.05
2022-07-27T18:42:27.942Z,0.80
2022-07-27T18:44:54.822Z,0.60
2022-07-27T18:47:22.911Z,0.93
2022-07-27T18:49:50.091Z,0.90
2022-07-27T18:52:17.324Z,0.70
2022-07-27T18:54:46.617Z,0.88
2022-07-27T18:57:13.972Z,0.82
2022-07-27T18:59:41.264Z,1.27
2022-07-27T19:02:08.715Z,0.90
2022-07-27T19:04:35.689Z,1.00
2022-07-27T19:07:03.515Z,0.88
2022-07-27T19:09:33.523Z,0.80
2022-07-27T19:12:03.497Z,0.55
2022-07-27T19:14:32.600Z,0.80
2022-07-27T19:16:59.506Z,0.93
2022-07-27T19:19:26.444Z,0.88
2022-07-27T19:21:53.271Z,0.88
2022-07-27T19:24:20.022Z,0.98
2022-07-27T19:26:46.890Z,0.93
2022-07-27T19:29:17.040Z,0.70
2022-07-27T19:31:44.046Z,0.60
2022-07-27T19:34:10.843Z,0.60
2022-07-27T19:36:39.149Z,0.82
2022-07-27T19:39:08.110Z,1.00
2022-07-27T19:41:35.481Z,0.70
2022-07-27T19:44:02.989Z,0.80
2022-07-27T19:46:30.718Z,0.68
2022-07-27T19:48:58.128Z,0.80
2022-07-27T19:51:25.477Z,0.77
2022-07-27T19:53:53.719Z,0.80
2022-07-27T19:56:20.630Z,0.80
2022-07-27T19:58:47.630Z,0.70
2022-07-27T20:01:14.542Z,0.90
2022-07-27T20:03:51.979Z,0.70
2022-07-27T20:06:26.784Z,0.80
2022-07-27T20:08:56.208Z,0.93
2022-07-27T20:11:23.805Z,0.80
2022-07-27T20:13:50.768Z,1.15
2022-07-27T20:16:19.693Z,0.80
2022-07-27T20:18:46.725Z,1.00
2022-07-27T20:21:20.155Z,0.85
2022-07-27T20:23:53.057Z,0.70
2022-07-27T20:26:21.024Z,0.70
2022-07-27T20:28:50.481Z,0.75
2022-07-27T20:31:18.304Z,0.70
2022-07-27T20:33:45.394Z,0.80
2022-07-27T20:36:12.616Z,0.82
2022-07-27T20:38:39.509Z,0.80
2022-07-27T20:41:06.435Z,1.00
2022-07-27T20:43:33.181Z,0.70
2022-07-27T20:46:00.058Z,0.95
2022-07-27T20:48:27.216Z,0.85
2022-07-27T20:50:53.995Z,0.95
2022-07-27T20:53:20.962Z,1.02
2022-07-27T20:55:48.193Z,0.90
2022-07-27T20:58:15.253Z,0.85
2022-07-27T21:00:42.805Z,1.15
2022-07-27T21:03:09.712Z,1.23
2022-07-27T21:05:38.089Z,1.10
2022-07-27T21:08:05.502Z,0.70
2022-07-27T21:10:33.087Z,0.88
2022-07-27T21:12:59.765Z,0.80
2022-07-27T21:15:33.721Z,0.80
2022-07-27T21:18:01.379Z,0.90
2022-07-27T21:20:29.119Z,1.10
2022-07-27T21:23:14.597Z,0.93
2022-07-27T21:25:41.774Z,0.77
2022-07-27T21:28:12.344Z,0.95
2022-07-27T21:30:43.804Z,1.10
2022-07-27T21:33:10.578Z,0.98
2022-07-27T21:35:37.573Z,0.98
2022-07-27T21:38:04.724Z,0.93
2022-07-27T21:40:31.837Z,1.33
2022-07-27T21:42:58.518Z,0.90
2022-07-27T21:45:25.213Z,1.05
2022-07-27T21:47:51.904Z,1.00
2022-07-27T21:50:18.762Z,0.90
2022-07-27T21:52:45.522Z,1.05
2022-07-27T21:55:12.222Z,0.90
2022-07-27T21:57:38.847Z,0.73
2022-07-27T22:00:06.374Z,0.90
2022-07-27T22:02:33.103Z,0.98
2022-07-27T22:04:59.775Z,1.00
2022-07-27T22:07:26.636Z,1.00
2022-07-27T22:09:53.388Z,0.70
2022-07-27T22:12:20.123Z,0.88
2022-07-27T22:14:46.749Z,1.00
2022-07-27T22:17:13.445Z,1.10
2022-07-27T22:19:40.072Z,0.90
2022-07-27T22:22:07.056Z,1.10
2022-07-27T22:24:33.812Z,0.95
2022-07-27T22:27:00.424Z,0.80
2022-07-27T22:29:27.065Z,1.05
2022-07-27T22:31:53.789Z,1.00
2022-07-27T22:34:20.432Z,1.13
2022-07-27T22:36:47.030Z,0.93
2022-07-27T22:39:13.773Z,0.95
2022-07-27T22:41:40.790Z,0.90
2022-07-27T22:44:07.449Z,0.80
2022-07-27T22:46:34.238Z,1.25
2022-07-27T22:49:01.020Z,1.10
2022-07-27T22:51:49.882Z,1.30
2022-07-27T22:54:14.793Z,1.00
2022-07-27T22:56:41.936Z,1.08
2022-07-27T22:59:08.611Z,1.02
2022-07-27T23:01:45.634Z,1.10
2022-07-27T23:04:14.781Z,1.30
2022-07-27T23:06:42.526Z,1.40
2022-07-27T23:09:09.150Z,1.75
2022-07-27T23:11:35.863Z,1.20
2022-07-27T23:14:02.547Z,0.90
2022-07-27T23:16:29.403Z,1.67
2022-07-27T23:18:56.229Z,1.02
2022-07-27T23:21:22.893Z,1.48
2022-07-27T23:23:53.410Z,1.10
2022-07-27T23:26:23.032Z,0.93
2022-07-27T23:28:53.503Z,1.30
2022-07-27T23:31:20.443Z,1.10
2022-07-27T23:33:47.201Z,0.85
2022-07-27T23:36:14.594Z,1.15
2022-07-27T23:38:41.556Z,1.20
2022-07-27T23:41:08.488Z,1.20
2022-07-27T23:43:35.136Z,1.20
2022-07-27T23:46:02.758Z,1.17
2022-07-27T23:48:29.632Z,1.05
2022-07-27T23:50:56.653Z,1.30
2022-07-27T23:53:23.960Z,1.15
2022-07-27T23:55:50.830Z,0.98
2022-07-27T23:58:17.690Z,1.00
